Terminal Aerodrome Forecast
Issued by NWS Pocatello, ID

Home | Current Version | Previous Version | Text Only | Print | Product List | Glossary On
Versions: 1 2 3 4 5 6 7 8 9 10 11 12 13
000
FTUS45 KPIH 101700
TAFBYI
TAF
KBYI 101720Z 1018/1118 27010KT P6SM SCT150 OVC250
     FM102000 28011KT P6SM VCTS SCT100 SCT150CB
     FM110300 VRB06KT P6SM SCT150=

USA.gov is the U.S. government's official web portal to all federal, state and local government web resources and services.